sensor_id;sensor_type;location;lat;lon;timestamp;pressure;altitude;pressure_sealevel;temperature;humidity
84767;BME280;74995;49.824;10.994;2024-03-23T00:53:26;98064.19;;;18.85;38.84
84767;BME280;74995;49.824;10.994;2024-03-23T00:55:52;98062.72;;;18.82;39.00
84767;BME280;74995;49.824;10.994;2024-03-23T00:58:17;98066.38;;;18.81;39.07
84767;BME280;74995;49.824;10.994;2024-03-23T01:00:42;98059.63;;;18.79;38.99
84767;BME280;74995;49.824;10.994;2024-03-23T01:03:08;98046.34;;;18.79;39.13
84767;BME280;74995;49.824;10.994;2024-03-23T01:05:33;98044.69;;;18.78;39.22
84767;BME280;74995;49.824;10.994;2024-03-23T01:07:58;98037.28;;;18.73;39.03
84767;BME280;74995;49.824;10.994;2024-03-23T01:10:24;98039.75;;;18.74;39.10
84767;BME280;74995;49.824;10.994;2024-03-23T01:12:49;98034.81;;;18.71;39.21
84767;BME280;74995;49.824;10.994;2024-03-23T01:15:15;98036.00;;;18.69;39.26
84767;BME280;74995;49.824;10.994;2024-03-23T01:17:40;98036.19;;;18.67;39.40
84767;BME280;74995;49.824;10.994;2024-03-23T01:20:06;98029.25;;;18.66;39.33
84767;BME280;74995;49.824;10.994;2024-03-23T01:22:32;98027.00;;;18.63;39.47
84767;BME280;74995;49.824;10.994;2024-03-23T01:24:58;98017.38;;;18.62;39.42
84767;BME280;74995;49.824;10.994;2024-03-23T01:27:23;98017.56;;;18.61;39.48
84767;BME280;74995;49.824;10.994;2024-03-23T01:29:49;98006.94;;;18.61;39.44
84767;BME280;74995;49.824;10.994;2024-03-23T01:32:14;98009.78;;;18.59;39.48
84767;BME280;74995;49.824;10.994;2024-03-23T01:34:39;98010.75;;;18.58;39.64
84767;BME280;74995;49.824;10.994;2024-03-23T01:37:05;98006.47;;;18.57;39.59
84767;BME280;74995;49.824;10.994;2024-03-23T01:39:30;98003.16;;;18.55;39.65
84767;BME280;74995;49.824;10.994;2024-03-23T01:41:55;97989.06;;;18.55;39.66
84767;BME280;74995;49.824;10.994;2024-03-23T01:44:21;97996.22;;;18.54;39.75
84767;BME280;74995;49.824;10.994;2024-03-23T01:46:46;97990.25;;;18.52;39.73
84767;BME280;74995;49.824;10.994;2024-03-23T01:49:12;97992.91;;;18.52;39.72
84767;BME280;74995;49.824;10.994;2024-03-23T01:51:37;97988.63;;;18.51;39.87
84767;BME280;74995;49.824;10.994;2024-03-23T01:54:03;97973.69;;;18.50;40.00
84767;BME280;74995;49.824;10.994;2024-03-23T01:56:38;97965.91;;;18.49;39.96
84767;BME280;74995;49.824;10.994;2024-03-23T01:59:04;97961.63;;;18.48;40.00
84767;BME280;74995;49.824;10.994;2024-03-23T02:01:30;97958.97;;;18.48;39.98
84767;BME280;74995;49.824;10.994;2024-03-23T02:03:56;97950.19;;;18.47;40.09
84767;BME280;74995;49.824;10.994;2024-03-23T02:06:21;97945.69;;;18.48;39.95
84767;BME280;74995;49.824;10.994;2024-03-23T02:08:47;97942.22;;;18.47;40.08
84767;BME280;74995;49.824;10.994;2024-03-23T02:11:13;97933.44;;;18.47;40.13
84767;BME280;74995;49.824;10.994;2024-03-23T02:13:38;97920.16;;;18.47;40.00
84767;BME280;74995;49.824;10.994;2024-03-23T02:16:05;97914.03;;;18.46;40.11
84767;BME280;74995;49.824;10.994;2024-03-23T02:18:30;97920.97;;;18.47;40.12
84767;BME280;74995;49.824;10.994;2024-03-23T02:20:56;97910.34;;;18.47;40.14
84767;BME280;74995;49.824;10.994;2024-03-23T02:23:21;97913.00;;;18.47;40.00
84767;BME280;74995;49.824;10.994;2024-03-23T02:25:46;97917.31;;;18.48;40.17
84767;BME280;74995;49.824;10.994;2024-03-23T02:28:12;97910.16;;;18.49;40.24
84767;BME280;74995;49.824;10.994;2024-03-23T02:30:38;97907.50;;;18.49;40.09
84767;BME280;74995;49.824;10.994;2024-03-23T02:33:04;97897.72;;;18.49;40.10
84767;BME280;74995;49.824;10.994;2024-03-23T02:35:29;97894.06;;;18.50;40.11
84767;BME280;74995;49.824;10.994;2024-03-23T02:37:55;97892.41;;;18.49;40.07
84767;BME280;74995;49.824;10.994;2024-03-23T02:40:23;97891.41;;;18.50;40.02
84767;BME280;74995;49.824;10.994;2024-03-23T02:42:50;97884.25;;;18.51;40.12
84767;BME280;74995;49.824;10.994;2024-03-23T02:45:15;97881.41;;;18.52;40.11
84767;BME280;74995;49.824;10.994;2024-03-23T02:47:40;97886.72;;;18.52;40.10
84767;BME280;74995;49.824;10.994;2024-03-23T02:50:06;97883.06;;;18.53;40.11
84767;BME280;74995;49.824;10.994;2024-03-23T02:52:32;97861.81;;;18.53;40.05
84767;BME280;74995;49.824;10.994;2024-03-23T02:54:57;97863.47;;;18.54;40.13
84767;BME280;74995;49.824;10.994;2024-03-23T02:57:23;97858.97;;;18.55;40.09
84767;BME280;74995;49.824;10.994;2024-03-23T02:59:48;97851.00;;;18.55;40.16
84767;BME280;74995;49.824;10.994;2024-03-23T03:02:15;97835.25;;;18.53;40.07
84767;BME280;74995;49.824;10.994;2024-03-23T03:04:40;97843.22;;;18.53;40.15
84767;BME280;74995;49.824;10.994;2024-03-23T03:07:06;97843.03;;;18.55;40.08
84767;BME280;74995;49.824;10.994;2024-03-23T03:09:31;97832.41;;;18.55;40.12
84767;BME280;74995;49.824;10.994;2024-03-23T03:11:56;97828.75;;;18.56;40.11
84767;BME280;74995;49.824;10.994;2024-03-23T03:14:22;97822.63;;;18.55;40.39
84767;BME280;74995;49.824;10.994;2024-03-23T03:16:47;97834.69;;;18.58;39.78
84767;BME280;74995;49.824;10.994;2024-03-23T03:19:12;97822.44;;;18.57;40.14
84767;BME280;74995;49.824;10.994;2024-03-23T03:21:38;97822.25;;;18.58;40.11
84767;BME280;74995;49.824;10.994;2024-03-23T03:24:06;97816.94;;;18.58;40.00
84767;BME280;74995;49.824;10.994;2024-03-23T03:26:31;97805.50;;;18.58;40.02
84767;BME280;74995;49.824;10.994;2024-03-23T03:28:57;97802.69;;;18.59;39.98
84767;BME280;74995;49.824;10.994;2024-03-23T03:31:22;97796.50;;;18.59;40.30
84767;BME280;74995;49.824;10.994;2024-03-23T03:33:49;97785.88;;;18.59;40.14
84767;BME280;74995;49.824;10.994;2024-03-23T03:36:15;97787.56;;;18.60;40.02
84767;BME280;74995;49.824;10.994;2024-03-23T03:38:40;97788.38;;;18.60;40.01
84767;BME280;74995;49.824;10.994;2024-03-23T03:41:05;97765.31;;;18.61;39.96
84767;BME280;74995;49.824;10.994;2024-03-23T03:43:34;97761.00;;;18.60;40.05
84767;BME280;74995;49.824;10.994;2024-03-23T03:46:00;97770.44;;;18.62;40.07
84767;BME280;74995;49.824;10.994;2024-03-23T03:48:26;97755.31;;;18.63;40.16
84767;BME280;74995;49.824;10.994;2024-03-23T03:50:52;97747.34;;;18.63;40.30
84767;BME280;74995;49.824;10.994;2024-03-23T03:53:18;97740.22;;;18.63;40.22
84767;BME280;74995;49.824;10.994;2024-03-23T03:55:43;97741.84;;;18.64;40.11
84767;BME280;74995;49.824;10.994;2024-03-23T03:58:08;97730.22;;;18.65;39.88
84767;BME280;74995;49.824;10.994;2024-03-23T04:00:34;97722.25;;;18.65;40.13
84767;BME280;74995;49.824;10.994;2024-03-23T04:02:59;97716.94;;;18.65;40.07
84767;BME280;74995;49.824;10.994;2024-03-23T04:05:24;97716.72;;;18.67;39.98
84767;BME280;74995;49.824;10.994;2024-03-23T04:07:50;97713.25;;;18.66;40.08
84767;BME280;74995;49.824;10.994;2024-03-23T04:10:15;97709.56;;;18.67;40.30
84767;BME280;74995;49.824;10.994;2024-03-23T04:12:41;97707.94;;;18.66;40.14
84767;BME280;74995;49.824;10.994;2024-03-23T04:15:06;97699.75;;;18.68;40.04
84767;BME280;74995;49.824;10.994;2024-03-23T04:17:32;97701.00;;;18.65;40.02
84767;BME280;74995;49.824;10.994;2024-03-23T04:19:59;97727.56;;;18.65;40.05
84767;BME280;74995;49.824;10.994;2024-03-23T04:22:25;97798.22;;;18.66;39.99
84767;BME280;74995;49.824;10.994;2024-03-23T04:24:53;97787.81;;;18.65;40.07
84767;BME280;74995;49.824;10.994;2024-03-23T04:27:18;97774.31;;;18.66;40.35
84767;BME280;74995;49.824;10.994;2024-03-23T04:29:47;97750.41;;;18.66;40.57
84767;BME280;74995;49.824;10.994;2024-03-23T04:32:13;97740.63;;;18.67;40.58
84767;BME280;74995;49.824;10.994;2024-03-23T04:34:39;97752.06;;;18.67;40.37
84767;BME280;74995;49.824;10.994;2024-03-23T04:37:04;97740.41;;;18.68;40.27
84767;BME280;74995;49.824;10.994;2024-03-23T04:39:29;97741.03;;;18.70;40.54
84767;BME280;74995;49.824;10.994;2024-03-23T04:41:55;97738.59;;;18.69;40.70
84767;BME280;74995;49.824;10.994;2024-03-23T04:44:20;97725.94;;;18.71;40.73
84767;BME280;74995;49.824;10.994;2024-03-23T04:46:46;97695.69;;;18.72;40.66
84767;BME280;74995;49.824;10.994;2024-03-23T04:49:11;97725.75;;;18.72;40.85
84767;BME280;74995;49.824;10.994;2024-03-23T04:51:37;97718.78;;;18.71;40.84
84767;BME280;74995;49.824;10.994;2024-03-23T04:54:06;97724.09;;;18.71;40.87
84767;BME280;74995;49.824;10.994;2024-03-23T04:56:32;97726.13;;;18.69;41.01
84767;BME280;74995;49.824;10.994;2024-03-23T04:58:58;97710.19;;;18.69;40.89
84767;BME280;74995;49.824;10.994;2024-03-23T05:01:26;97712.84;;;18.69;41.13
84767;BME280;74995;49.824;10.994;2024-03-23T05:03:52;97705.06;;;18.68;41.28
84767;BME280;74995;49.824;10.994;2024-03-23T05:06:18;97706.09;;;18.67;41.46
84767;BME280;74995;49.824;10.994;2024-03-23T05:08:43;97693.84;;;18.66;41.44
84767;BME280;74995;49.824;10.994;2024-03-23T05:11:08;97700.19;;;18.65;41.54
84767;BME280;74995;49.824;10.994;2024-03-23T05:13:34;97700.38;;;18.63;41.51
84767;BME280;74995;49.824;10.994;2024-03-23T05:15:59;97668.72;;;18.62;41.44
84767;BME280;74995;49.824;10.994;2024-03-23T05:18:24;97661.56;;;18.62;41.42
84767;BME280;74995;49.824;10.994;2024-03-23T05:20:56;97646.03;;;18.59;41.57
84767;BME280;74995;49.824;10.994;2024-03-23T05:23:22;97645.81;;;18.61;41.47
84767;BME280;74995;49.824;10.994;2024-03-23T05:25:47;97647.47;;;18.62;41.52
84767;BME280;74995;49.824;10.994;2024-03-23T05:28:13;97643.19;;;18.61;41.67
84767;BME280;74995;49.824;10.994;2024-03-23T05:30:38;97648.69;;;18.59;41.62
84767;BME280;74995;49.824;10.994;2024-03-23T05:33:05;97662.31;;;18.56;41.53
84767;BME280;74995;49.824;10.994;2024-03-23T05:35:31;97671.91;;;18.57;41.57
84767;BME280;74995;49.824;10.994;2024-03-23T05:37:57;97661.69;;;18.54;41.76
84767;BME280;74995;49.824;10.994;2024-03-23T05:40:23;97656.00;;;18.57;41.60
84767;BME280;74995;49.824;10.994;2024-03-23T05:42:49;97654.16;;;18.58;41.61
84767;BME280;74995;49.824;10.994;2024-03-23T05:45:14;97653.72;;;18.54;41.67
84767;BME280;74995;49.824;10.994;2024-03-23T05:47:39;97659.66;;;18.56;41.79
84767;BME280;74995;49.824;10.994;2024-03-23T05:50:05;97651.69;;;18.56;41.62
84767;BME280;74995;49.824;10.994;2024-03-23T05:52:30;97654.53;;;18.55;41.33
84767;BME280;74995;49.824;10.994;2024-03-23T05:54:55;97655.56;;;18.54;41.62
84767;BME280;74995;49.824;10.994;2024-03-23T05:57:21;97652.09;;;18.53;41.68
84767;BME280;74995;49.824;10.994;2024-03-23T05:59:46;97651.25;;;18.53;41.65
84767;BME280;74995;49.824;10.994;2024-03-23T06:02:11;97642.47;;;18.52;41.57
84767;BME280;74995;49.824;10.994;2024-03-23T06:04:37;97635.53;;;18.51;41.73
84767;BME280;74995;49.824;10.994;2024-03-23T06:07:03;97635.53;;;18.51;41.65
84767;BME280;74995;49.824;10.994;2024-03-23T06:09:28;97638.38;;;18.50;41.70
84767;BME280;74995;49.824;10.994;2024-03-23T06:11:56;97621.81;;;18.48;41.63
84767;BME280;74995;49.824;10.994;2024-03-23T06:14:21;97635.72;;;18.50;41.71
84767;BME280;74995;49.824;10.994;2024-03-23T06:16:47;97629.78;;;18.48;41.75
84767;BME280;74995;49.824;10.994;2024-03-23T06:19:12;97631.63;;;18.47;41.67
84767;BME280;74995;49.824;10.994;2024-03-23T06:21:43;97639.59;;;18.47;41.87
84767;BME280;74995;49.824;10.994;2024-03-23T06:24:08;97628.97;;;18.47;41.80
84767;BME280;74995;49.824;10.994;2024-03-23T06:26:34;97635.50;;;18.45;41.82
84767;BME280;74995;49.824;10.994;2024-03-23T06:28:59;97645.28;;;18.44;41.93
84767;BME280;74995;49.824;10.994;2024-03-23T06:31:24;97634.66;;;18.44;41.95
84767;BME280;74995;49.824;10.994;2024-03-23T06:33:49;97632.84;;;18.45;41.87
84767;BME280;74995;49.824;10.994;2024-03-23T06:36:15;97629.34;;;18.44;41.92
84767;BME280;74995;49.824;10.994;2024-03-23T06:38:40;97643.44;;;18.45;41.88
84767;BME280;74995;49.824;10.994;2024-03-23T06:41:06;97644.69;;;18.42;41.72
84767;BME280;74995;49.824;10.994;2024-03-23T06:43:31;97639.16;;;18.44;41.79
84767;BME280;74995;49.824;10.994;2024-03-23T06:45:57;97639.97;;;18.44;41.94
84767;BME280;74995;49.824;10.994;2024-03-23T06:48:22;97654.88;;;18.45;41.77
84767;BME280;74995;49.824;10.994;2024-03-23T06:50:48;97646.94;;;18.45;41.84
84767;BME280;74995;49.824;10.994;2024-03-23T06:53:14;97648.56;;;18.46;41.95
84767;BME280;74995;49.824;10.994;2024-03-23T06:55:39;97653.06;;;18.46;41.89
84767;BME280;74995;49.824;10.994;2024-03-23T06:58:05;97648.56;;;18.46;42.06
84767;BME280;74995;49.824;10.994;2024-03-23T07:00:31;97647.56;;;18.47;41.94
84767;BME280;74995;49.824;10.994;2024-03-23T07:02:57;97662.47;;;18.48;41.89
84767;BME280;74995;49.824;10.994;2024-03-23T07:05:22;97664.09;;;18.49;41.93
84767;BME280;74995;49.824;10.994;2024-03-23T07:07:47;97667.38;;;18.51;41.92
84767;BME280;74995;49.824;10.994;2024-03-23T07:10:13;97673.72;;;18.50;42.12
84767;BME280;74995;49.824;10.994;2024-03-23T07:12:38;97671.06;;;18.50;42.14
84767;BME280;74995;49.824;10.994;2024-03-23T07:15:04;97680.03;;;18.49;42.17
84767;BME280;74995;49.824;10.994;2024-03-23T07:17:29;97680.84;;;18.50;42.11
84767;BME280;74995;49.824;10.994;2024-03-23T07:19:55;97694.31;;;18.48;42.20
84767;BME280;74995;49.824;10.994;2024-03-23T07:22:20;97708.59;;;18.47;42.35
84767;BME280;74995;49.824;10.994;2024-03-23T07:24:45;97691.84;;;18.47;42.41
84767;BME280;74995;49.824;10.994;2024-03-23T07:27:11;97708.16;;;18.44;42.58
84767;BME280;74995;49.824;10.994;2024-03-23T07:29:36;97688.16;;;18.41;42.58
84767;BME280;74995;49.824;10.994;2024-03-23T07:32:02;97699.81;;;18.40;42.54
84767;BME280;74995;49.824;10.994;2024-03-23T07:34:27;97707.75;;;18.40;42.58
84767;BME280;74995;49.824;10.994;2024-03-23T07:36:52;97712.44;;;18.38;42.59
84767;BME280;74995;49.824;10.994;2024-03-23T07:39:17;97714.09;;;18.39;42.74
84767;BME280;74995;49.824;10.994;2024-03-23T07:41:46;97715.91;;;18.38;42.64
84767;BME280;74995;49.824;10.994;2024-03-23T07:44:11;97722.25;;;18.37;42.52
84767;BME280;74995;49.824;10.994;2024-03-23T07:46:36;97726.72;;;18.37;42.61
84767;BME280;74995;49.824;10.994;2024-03-23T07:49:04;97743.66;;;18.36;42.68
84767;BME280;74995;49.824;10.994;2024-03-23T07:51:29;97754.28;;;18.36;42.68
84767;BME280;74995;49.824;10.994;2024-03-23T07:53:54;97768.56;;;18.35;42.54
84767;BME280;74995;49.824;10.994;2024-03-23T07:56:20;97762.25;;;18.36;42.64
84767;BME280;74995;49.824;10.994;2024-03-23T07:58:47;97787.13;;;18.35;42.81
84767;BME280;74995;49.824;10.994;2024-03-23T08:01:16;97767.31;;;18.31;42.64
84767;BME280;74995;49.824;10.994;2024-03-23T08:03:45;97778.56;;;18.33;42.66
84767;BME280;74995;49.824;10.994;2024-03-23T08:06:13;97798.78;;;18.34;42.59
84767;BME280;74995;49.824;10.994;2024-03-23T08:08:39;97809.38;;;18.34;42.51
84767;BME280;74995;49.824;10.994;2024-03-23T08:11:05;97816.53;;;18.33;42.56
84767;BME280;74995;49.824;10.994;2024-03-23T08:13:31;97826.50;;;18.31;42.70
84767;BME280;74995;49.824;10.994;2024-03-23T08:16:00;97819.56;;;18.30;42.61
84767;BME280;74995;49.824;10.994;2024-03-23T08:18:27;97823.84;;;18.31;42.53
84767;BME280;74995;49.824;10.994;2024-03-23T08:20:59;97846.72;;;18.32;42.46
84767;BME280;74995;49.824;10.994;2024-03-23T08:23:25;97844.91;;;18.33;42.32
84767;BME280;74995;49.824;10.994;2024-03-23T08:25:50;97861.72;;;18.40;42.04
84767;BME280;74995;49.824;10.994;2024-03-23T08:28:15;97848.00;;;18.36;42.15
84767;BME280;74995;49.824;10.994;2024-03-23T08:30:41;97858.16;;;18.33;41.86
84767;BME280;74995;49.824;10.994;2024-03-23T08:33:06;97852.22;;;18.31;42.11
84767;BME280;74995;49.824;10.994;2024-03-23T08:35:32;97864.03;;;18.28;41.99
84767;BME280;74995;49.824;10.994;2024-03-23T08:37:57;97874.22;;;18.25;42.04
84767;BME280;74995;49.824;10.994;2024-03-23T08:40:22;97884.19;;;18.23;42.12
84767;BME280;74995;49.824;10.994;2024-03-23T08:42:48;97881.91;;;18.20;42.11
84767;BME280;74995;49.824;10.994;2024-03-23T08:45:13;97915.41;;;18.21;42.09
84767;BME280;74995;49.824;10.994;2024-03-23T08:47:38;97919.06;;;18.20;41.92
84767;BME280;74995;49.824;10.994;2024-03-23T08:50:04;97940.69;;;18.17;41.79
84767;BME280;74995;49.824;10.994;2024-03-23T08:52:29;97959.44;;;18.15;41.71
84767;BME280;74995;49.824;10.994;2024-03-23T08:54:55;97973.91;;;18.13;41.46
84767;BME280;74995;49.824;10.994;2024-03-23T08:57:22;97988.56;;;18.09;41.50
84767;BME280;74995;49.824;10.994;2024-03-23T08:59:47;97989.09;;;18.04;41.51
84767;BME280;74995;49.824;10.994;2024-03-23T09:02:13;98009.88;;;18.00;41.47
84767;BME280;74995;49.824;10.994;2024-03-23T09:04:38;98001.63;;;17.95;41.55
84767;BME280;74995;49.824;10.994;2024-03-23T09:07:03;98006.94;;;17.95;41.31
84767;BME280;74995;49.824;10.994;2024-03-23T09:09:29;98012.25;;;17.95;41.23
84767;BME280;74995;49.824;10.994;2024-03-23T09:11:55;98019.59;;;17.93;41.27
84767;BME280;74995;49.824;10.994;2024-03-23T09:14:22;98022.41;;;17.92;40.97
84767;BME280;74995;49.824;10.994;2024-03-23T09:16:49;98027.72;;;17.92;41.28
84767;BME280;74995;49.824;10.994;2024-03-23T09:19:15;98028.56;;;17.92;41.30
84767;BME280;74995;49.824;10.994;2024-03-23T09:21:40;98051.41;;;17.93;41.07
84767;BME280;74995;49.824;10.994;2024-03-23T09:24:06;98053.44;;;17.91;40.93
84767;BME280;74995;49.824;10.994;2024-03-23T09:26:31;98048.47;;;17.88;40.62
84767;BME280;74995;49.824;10.994;2024-03-23T09:28:56;98048.66;;;17.87;41.01
84767;BME280;74995;49.824;10.994;2024-03-23T09:31:22;98062.94;;;17.86;40.71
84767;BME280;74995;49.824;10.994;2024-03-23T09:33:47;98057.63;;;17.86;40.70
84767;BME280;74995;49.824;10.994;2024-03-23T09:36:12;98062.75;;;17.87;40.72
84767;BME280;74995;49.824;10.994;2024-03-23T09:38:38;98062.56;;;17.89;40.92
84767;BME280;74995;49.824;10.994;2024-03-23T09:41:07;98075.00;;;17.88;40.56
84767;BME280;74995;49.824;10.994;2024-03-23T09:43:32;98068.53;;;17.91;40.61
84767;BME280;74995;49.824;10.994;2024-03-23T09:45:58;98069.34;;;17.91;40.43
84767;BME280;74995;49.824;10.994;2024-03-23T09:48:24;98076.28;;;17.92;40.60
84767;BME280;74995;49.824;10.994;2024-03-23T09:50:49;98081.41;;;17.94;40.29
84767;BME280;74995;49.824;10.994;2024-03-23T09:53:15;98087.56;;;17.94;40.11
84767;BME280;74995;49.824;10.994;2024-03-23T09:55:41;98089.38;;;17.94;39.98
84767;BME280;74995;49.824;10.994;2024-03-23T09:58:07;98100.00;;;17.94;40.14
84767;BME280;74995;49.824;10.994;2024-03-23T10:00:36;98106.28;;;17.93;39.72
84767;BME280;74995;49.824;10.994;2024-03-23T10:03:02;98116.72;;;17.94;39.64
84767;BME280;74995;49.824;10.994;2024-03-23T10:05:28;98113.25;;;17.94;39.67
84767;BME280;74995;49.824;10.994;2024-03-23T10:07:54;98118.75;;;17.92;39.46
84767;BME280;74995;49.824;10.994;2024-03-23T10:10:20;98119.75;;;17.91;39.39
84767;BME280;74995;49.824;10.994;2024-03-23T10:12:48;98118.09;;;17.90;39.19
84767;BME280;74995;49.824;10.994;2024-03-23T10:15:23;98131.34;;;17.90;38.99
84767;BME280;74995;49.824;10.994;2024-03-23T10:17:49;98132.19;;;17.91;39.01
84767;BME280;74995;49.824;10.994;2024-03-23T10:20:22;98137.66;;;17.89;39.00
84767;BME280;74995;49.824;10.994;2024-03-23T10:22:51;98151.09;;;17.88;39.01
84767;BME280;74995;49.824;10.994;2024-03-23T10:25:17;98150.28;;;17.87;38.88
84767;BME280;74995;49.824;10.994;2024-03-23T10:27:43;98148.44;;;17.88;39.08
84767;BME280;74995;49.824;10.994;2024-03-23T10:30:15;98151.94;;;17.88;39.06
84767;BME280;74995;49.824;10.994;2024-03-23T10:32:40;98151.56;;;17.91;39.25
84767;BME280;74995;49.824;10.994;2024-03-23T10:35:19;98140.84;;;17.99;39.02
84767;BME280;74995;49.824;10.994;2024-03-23T10:37:47;98146.16;;;17.99;38.96
84767;BME280;74995;49.824;10.994;2024-03-23T10:40:15;98146.16;;;17.99;38.78
84767;BME280;74995;49.824;10.994;2024-03-23T10:42:41;98139.22;;;17.98;38.79
84767;BME280;74995;49.824;10.994;2024-03-23T10:45:07;98142.03;;;17.97;38.70
84767;BME280;74995;49.824;10.994;2024-03-23T10:47:35;98141.22;;;17.96;38.71
84767;BME280;74995;49.824;10.994;2024-03-23T10:50:01;98144.50;;;17.98;38.53
84767;BME280;74995;49.824;10.994;2024-03-23T10:52:27;98135.56;;;17.99;38.21
84767;BME280;74995;49.824;10.994;2024-03-23T10:54:52;98150.47;;;18.00;38.73
84767;BME280;74995;49.824;10.994;2024-03-23T10:57:21;98150.28;;;18.02;38.39
84767;BME280;74995;49.824;10.994;2024-03-23T10:59:46;98151.94;;;18.03;38.36
84767;BME280;74995;49.824;10.994;2024-03-23T11:02:19;98157.06;;;18.04;38.53
84767;BME280;74995;49.824;10.994;2024-03-23T11:04:44;98158.53;;;18.07;38.37
84767;BME280;74995;49.824;10.994;2024-03-23T11:09:54;98175.56;;;18.13;38.19
84767;BME280;74995;49.824;10.994;2024-03-23T11:14:44;98168.25;;;18.15;37.85
84767;BME280;74995;49.824;10.994;2024-03-23T11:17:10;98176.03;;;18.16;37.76
84767;BME280;74995;49.824;10.994;2024-03-23T11:19:36;98175.84;;;18.18;37.46
84767;BME280;74995;49.824;10.994;2024-03-23T11:22:02;98171.38;;;18.18;37.62
84767;BME280;74995;49.824;10.994;2024-03-23T11:24:28;98169.53;;;18.19;37.53
84767;BME280;74995;49.824;10.994;2024-03-23T11:26:54;98172.63;;;18.22;37.64
84767;BME280;74995;49.824;10.994;2024-03-23T11:29:19;98174.28;;;18.23;37.32
84767;BME280;74995;49.824;10.994;2024-03-23T11:31:49;98168.97;;;18.23;37.21
84767;BME280;74995;49.824;10.994;2024-03-23T11:34:18;98171.25;;;18.26;37.30
84767;BME280;74995;49.824;10.994;2024-03-23T11:36:44;98170.91;;;18.29;37.44
84767;BME280;74995;49.824;10.994;2024-03-23T11:41:51;98175.66;;;18.34;36.93
84767;BME280;74995;49.824;10.994;2024-03-23T11:44:21;98173.84;;;18.34;37.22
84767;BME280;74995;49.824;10.994;2024-03-23T11:46:49;98172.19;;;18.33;37.17
84767;BME280;74995;49.824;10.994;2024-03-23T11:49:27;98176.13;;;18.37;37.00
84767;BME280;74995;49.824;10.994;2024-03-23T11:51:54;98180.25;;;18.40;36.89
84767;BME280;74995;49.824;10.994;2024-03-23T11:54:24;98173.28;;;18.39;36.81
84767;BME280;74995;49.824;10.994;2024-03-23T11:56:57;98173.94;;;18.41;36.64
84767;BME280;74995;49.824;10.994;2024-03-23T12:01:57;98183.97;;;18.46;36.62
84767;BME280;74995;49.824;10.994;2024-03-23T12:04:28;98178.66;;;18.46;36.57
84767;BME280;74995;49.824;10.994;2024-03-23T12:07:10;98170.53;;;18.47;36.65
84767;BME280;74995;49.824;10.994;2024-03-23T12:09:35;98174.47;;;18.51;36.40
84767;BME280;74995;49.824;10.994;2024-03-23T12:14:36;98188.19;;;18.55;36.25
84767;BME280;74995;49.824;10.994;2024-03-23T12:17:14;98185.38;;;18.56;36.06
84767;BME280;74995;49.824;10.994;2024-03-23T12:19:41;98184.19;;;18.59;36.00
84767;BME280;74995;49.824;10.994;2024-03-23T12:22:07;98191.16;;;18.60;35.91
84767;BME280;74995;49.824;10.994;2024-03-23T12:24:33;98197.94;;;18.62;35.69
84767;BME280;74995;49.824;10.994;2024-03-23T12:27:03;98191.63;;;18.63;35.79
84767;BME280;74995;49.824;10.994;2024-03-23T12:29:30;98193.47;;;18.63;35.73
84767;BME280;74995;49.824;10.994;2024-03-23T12:31:59;98187.16;;;18.64;35.53
84767;BME280;74995;49.824;10.994;2024-03-23T12:34:24;98186.13;;;18.65;35.52
84767;BME280;74995;49.824;10.994;2024-03-23T12:36:50;98177.53;;;18.63;35.46
84767;BME280;74995;49.824;10.994;2024-03-23T12:39:15;98172.66;;;18.66;35.72
84767;BME280;74995;49.824;10.994;2024-03-23T12:41:40;98172.47;;;18.68;35.70
84767;BME280;74995;49.824;10.994;2024-03-23T12:44:06;98174.94;;;18.69;35.69
84767;BME280;74995;49.824;10.994;2024-03-23T12:46:33;98171.28;;;18.70;35.59
84767;BME280;74995;49.824;10.994;2024-03-23T12:48:58;98164.59;;;18.74;35.66
84767;BME280;74995;49.824;10.994;2024-03-23T12:51:24;98175.84;;;18.77;35.65
84767;BME280;74995;49.824;10.994;2024-03-23T12:53:50;98162.19;;;18.80;35.62
84767;BME280;74995;49.824;10.994;2024-03-23T12:56:15;98168.16;;;18.82;35.85
84767;BME280;74995;49.824;10.994;2024-03-23T12:58:40;98162.47;;;18.85;35.72
84767;BME280;74995;49.824;10.994;2024-03-23T13:01:06;98162.94;;;18.88;35.54
84767;BME280;74995;49.824;10.994;2024-03-23T13:03:31;98168.47;;;18.93;35.57
84767;BME280;74995;49.824;10.994;2024-03-23T13:05:56;98167.47;;;18.94;35.34
84767;BME280;74995;49.824;10.994;2024-03-23T13:08:22;98157.13;;;18.99;35.39
84767;BME280;74995;49.824;10.994;2024-03-23T13:10:47;98155.91;;;19.02;35.49
84767;BME280;74995;49.824;10.994;2024-03-23T13:13:12;98148.59;;;19.04;35.31
84767;BME280;74995;49.824;10.994;2024-03-23T13:15:38;98149.22;;;19.06;35.40
84767;BME280;74995;49.824;10.994;2024-03-23T13:18:03;98148.84;;;19.09;34.65
84767;BME280;74995;49.824;10.994;2024-03-23T13:20:28;98142.53;;;19.10;34.78
84767;BME280;74995;49.824;10.994;2024-03-23T13:22:54;98148.66;;;19.11;34.60
84767;BME280;74995;49.824;10.994;2024-03-23T13:25:19;98145.19;;;19.10;34.29
84767;BME280;74995;49.824;10.994;2024-03-23T13:27:45;98133.72;;;19.10;34.28
84767;BME280;74995;49.824;10.994;2024-03-23T13:30:11;98130.25;;;19.09;34.30
84767;BME280;74995;49.824;10.994;2024-03-23T13:32:36;98135.38;;;19.11;34.31
84767;BME280;74995;49.824;10.994;2024-03-23T13:35:03;98139.03;;;19.10;34.26
84767;BME280;74995;49.824;10.994;2024-03-23T13:37:28;98140.25;;;19.07;34.05
84767;BME280;74995;49.824;10.994;2024-03-23T13:39:54;98136.94;;;19.05;33.67
84767;BME280;74995;49.824;10.994;2024-03-23T13:42:19;98138.97;;;19.03;33.68
84767;BME280;74995;49.824;10.994;2024-03-23T13:44:44;98149.59;;;19.03;33.63
84767;BME280;74995;49.824;10.994;2024-03-23T13:47:10;98155.09;;;19.01;33.42
84767;BME280;74995;49.824;10.994;2024-03-23T13:49:35;98153.63;;;18.99;33.49